sensor_id;sensor_type;location;lat;lon;timestamp;P1;durP1;ratioP1;P2;durP2;ratioP2
13487;SDS011;6816;48.506;9.050;2023-08-01T00:01:35;3.00;;;2.70;;
13487;SDS011;6816;48.506;9.050;2023-08-01T00:04:36;2.88;;;2.58;;
13487;SDS011;6816;48.506;9.050;2023-08-01T00:07:37;3.05;;;2.75;;
13487;SDS011;6816;48.506;9.050;2023-08-01T00:10:38;3.25;;;2.80;;
13487;SDS011;6816;48.506;9.050;2023-08-01T00:13:39;3.28;;;2.75;;
13487;SDS011;6816;48.506;9.050;2023-08-01T00:16:40;4.00;;;3.58;;
13487;SDS011;6816;48.506;9.050;2023-08-01T00:19:41;3.20;;;2.90;;
13487;SDS011;6816;48.506;9.050;2023-08-01T00:22:41;3.33;;;3.03;;
13487;SDS011;6816;48.506;9.050;2023-08-01T00:25:42;4.13;;;3.20;;
13487;SDS011;6816;48.506;9.050;2023-08-01T00:28:43;3.10;;;2.80;;
13487;SDS011;6816;48.506;9.050;2023-08-01T00:31:44;4.97;;;3.20;;
13487;SDS011;6816;48.506;9.050;2023-08-01T00:34:44;3.75;;;2.75;;
13487;SDS011;6816;48.506;9.050;2023-08-01T00:37:45;3.13;;;2.83;;
13487;SDS011;6816;48.506;9.050;2023-08-01T00:40:45;2.92;;;2.65;;
13487;SDS011;6816;48.506;9.050;2023-08-01T00:43:46;3.70;;;2.60;;
13487;SDS011;6816;48.506;9.050;2023-08-01T00:46:47;2.92;;;2.65;;
13487;SDS011;6816;48.506;9.050;2023-08-01T00:49:48;3.05;;;2.65;;
13487;SDS011;6816;48.506;9.050;2023-08-01T00:52:50;3.97;;;3.35;;
13487;SDS011;6816;48.506;9.050;2023-08-01T00:55:52;3.08;;;2.58;;
13487;SDS011;6816;48.506;9.050;2023-08-01T00:58:54;3.92;;;3.53;;
13487;SDS011;6816;48.506;9.050;2023-08-01T01:01:54;3.70;;;2.88;;
13487;SDS011;6816;48.506;9.050;2023-08-01T01:04:55;4.93;;;3.15;;
13487;SDS011;6816;48.506;9.050;2023-08-01T01:07:56;3.05;;;2.70;;
13487;SDS011;6816;48.506;9.050;2023-08-01T01:10:57;3.58;;;2.78;;
13487;SDS011;6816;48.506;9.050;2023-08-01T01:13:58;3.50;;;2.88;;
13487;SDS011;6816;48.506;9.050;2023-08-01T01:16:58;3.47;;;2.90;;
13487;SDS011;6816;48.506;9.050;2023-08-01T01:19:59;4.97;;;3.50;;
13487;SDS011;6816;48.506;9.050;2023-08-01T01:23:00;3.00;;;2.58;;
13487;SDS011;6816;48.506;9.050;2023-08-01T01:26:03;2.97;;;2.78;;
13487;SDS011;6816;48.506;9.050;2023-08-01T01:29:06;3.85;;;2.88;;
13487;SDS011;6816;48.506;9.050;2023-08-01T01:32:10;3.55;;;3.20;;
13487;SDS011;6816;48.506;9.050;2023-08-01T01:35:11;3.25;;;2.95;;
13487;SDS011;6816;48.506;9.050;2023-08-01T01:38:12;3.08;;;2.78;;
13487;SDS011;6816;48.506;9.050;2023-08-01T01:41:13;3.53;;;3.05;;
13487;SDS011;6816;48.506;9.050;2023-08-01T01:44:13;3.28;;;2.97;;
13487;SDS011;6816;48.506;9.050;2023-08-01T01:47:14;4.25;;;2.95;;
13487;SDS011;6816;48.506;9.050;2023-08-01T01:50:16;3.28;;;2.97;;
13487;SDS011;6816;48.506;9.050;2023-08-01T01:53:17;3.30;;;3.00;;
13487;SDS011;6816;48.506;9.050;2023-08-01T01:56:18;3.63;;;3.00;;
13487;SDS011;6816;48.506;9.050;2023-08-01T01:59:18;3.37;;;2.90;;
13487;SDS011;6816;48.506;9.050;2023-08-01T02:02:19;3.30;;;3.00;;
13487;SDS011;6816;48.506;9.050;2023-08-01T02:05:20;3.50;;;3.20;;
13487;SDS011;6816;48.506;9.050;2023-08-01T02:08:20;5.35;;;3.40;;
13487;SDS011;6816;48.506;9.050;2023-08-01T02:11:21;4.03;;;3.30;;
13487;SDS011;6816;48.506;9.050;2023-08-01T02:14:21;3.22;;;2.92;;
13487;SDS011;6816;48.506;9.050;2023-08-01T02:17:22;2.85;;;2.60;;
13487;SDS011;6816;48.506;9.050;2023-08-01T02:20:22;3.38;;;3.08;;
13487;SDS011;6816;48.506;9.050;2023-08-01T02:23:23;3.55;;;3.10;;
13487;SDS011;6816;48.506;9.050;2023-08-01T02:26:24;3.80;;;3.10;;
13487;SDS011;6816;48.506;9.050;2023-08-01T02:29:25;3.08;;;2.78;;
13487;SDS011;6816;48.506;9.050;2023-08-01T02:32:25;4.05;;;3.00;;
13487;SDS011;6816;48.506;9.050;2023-08-01T02:35:26;4.72;;;3.22;;
13487;SDS011;6816;48.506;9.050;2023-08-01T02:38:28;3.28;;;2.97;;
13487;SDS011;6816;48.506;9.050;2023-08-01T02:41:28;6.13;;;3.60;;
13487;SDS011;6816;48.506;9.050;2023-08-01T02:44:30;3.35;;;2.85;;
13487;SDS011;6816;48.506;9.050;2023-08-01T02:47:30;3.50;;;3.20;;
13487;SDS011;6816;48.506;9.050;2023-08-01T02:50:31;4.07;;;3.00;;
13487;SDS011;6816;48.506;9.050;2023-08-01T02:53:31;3.35;;;2.95;;
13487;SDS011;6816;48.506;9.050;2023-08-01T02:56:32;3.35;;;2.92;;
13487;SDS011;6816;48.506;9.050;2023-08-01T02:59:32;3.90;;;3.53;;
13487;SDS011;6816;48.506;9.050;2023-08-01T03:02:33;6.15;;;3.28;;
13487;SDS011;6816;48.506;9.050;2023-08-01T03:05:36;3.90;;;3.03;;
13487;SDS011;6816;48.506;9.050;2023-08-01T03:08:37;3.00;;;2.67;;
13487;SDS011;6816;48.506;9.050;2023-08-01T03:11:38;5.80;;;2.90;;
13487;SDS011;6816;48.506;9.050;2023-08-01T03:14:38;3.55;;;3.25;;
13487;SDS011;6816;48.506;9.050;2023-08-01T03:17:41;3.38;;;2.90;;
13487;SDS011;6816;48.506;9.050;2023-08-01T03:20:42;3.47;;;3.08;;
13487;SDS011;6816;48.506;9.050;2023-08-01T03:23:42;3.38;;;3.08;;
13487;SDS011;6816;48.506;9.050;2023-08-01T03:26:43;2.92;;;2.67;;
13487;SDS011;6816;48.506;9.050;2023-08-01T03:29:43;4.53;;;3.20;;
13487;SDS011;6816;48.506;9.050;2023-08-01T03:32:44;5.93;;;3.35;;
13487;SDS011;6816;48.506;9.050;2023-08-01T03:35:44;4.68;;;3.17;;
13487;SDS011;6816;48.506;9.050;2023-08-01T03:38:45;3.42;;;2.75;;
13487;SDS011;6816;48.506;9.050;2023-08-01T03:41:46;3.53;;;3.10;;
13487;SDS011;6816;48.506;9.050;2023-08-01T03:44:46;5.68;;;3.20;;
13487;SDS011;6816;48.506;9.050;2023-08-01T03:47:47;3.72;;;3.30;;
13487;SDS011;6816;48.506;9.050;2023-08-01T03:50:47;3.83;;;2.97;;
13487;SDS011;6816;48.506;9.050;2023-08-01T03:53:48;3.45;;;2.63;;
13487;SDS011;6816;48.506;9.050;2023-08-01T03:56:49;3.80;;;2.95;;
13487;SDS011;6816;48.506;9.050;2023-08-01T03:59:49;3.97;;;3.03;;
13487;SDS011;6816;48.506;9.050;2023-08-01T04:02:50;3.97;;;2.83;;
13487;SDS011;6816;48.506;9.050;2023-08-01T04:05:50;3.15;;;2.85;;
13487;SDS011;6816;48.506;9.050;2023-08-01T04:08:51;3.15;;;2.75;;
13487;SDS011;6816;48.506;9.050;2023-08-01T04:11:52;3.83;;;2.60;;
13487;SDS011;6816;48.506;9.050;2023-08-01T04:14:53;4.53;;;2.88;;
13487;SDS011;6816;48.506;9.050;2023-08-01T04:17:53;3.55;;;3.25;;
13487;SDS011;6816;48.506;9.050;2023-08-01T04:20:54;3.13;;;2.58;;
13487;SDS011;6816;48.506;9.050;2023-08-01T04:23:54;2.95;;;2.45;;
13487;SDS011;6816;48.506;9.050;2023-08-01T04:26:55;4.25;;;3.10;;
13487;SDS011;6816;48.506;9.050;2023-08-01T04:29:55;3.78;;;2.78;;
13487;SDS011;6816;48.506;9.050;2023-08-01T04:32:56;3.45;;;2.95;;
13487;SDS011;6816;48.506;9.050;2023-08-01T04:35:57;3.92;;;3.22;;
13487;SDS011;6816;48.506;9.050;2023-08-01T04:38:57;4.40;;;2.85;;
13487;SDS011;6816;48.506;9.050;2023-08-01T04:41:58;4.47;;;3.15;;
13487;SDS011;6816;48.506;9.050;2023-08-01T04:44:58;3.20;;;2.88;;
13487;SDS011;6816;48.506;9.050;2023-08-01T04:47:59;4.20;;;3.10;;
13487;SDS011;6816;48.506;9.050;2023-08-01T04:50:59;4.25;;;3.22;;
13487;SDS011;6816;48.506;9.050;2023-08-01T04:54:00;4.28;;;3.28;;
13487;SDS011;6816;48.506;9.050;2023-08-01T04:57:01;3.33;;;2.97;;
13487;SDS011;6816;48.506;9.050;2023-08-01T05:00:02;3.53;;;3.13;;
13487;SDS011;6816;48.506;9.050;2023-08-01T05:03:04;4.30;;;3.13;;
13487;SDS011;6816;48.506;9.050;2023-08-01T05:06:04;3.85;;;3.17;;
13487;SDS011;6816;48.506;9.050;2023-08-01T05:09:05;4.97;;;3.38;;
13487;SDS011;6816;48.506;9.050;2023-08-01T05:12:06;3.63;;;3.28;;
13487;SDS011;6816;48.506;9.050;2023-08-01T05:15:09;4.50;;;3.40;;
13487;SDS011;6816;48.506;9.050;2023-08-01T05:18:09;3.95;;;3.00;;
13487;SDS011;6816;48.506;9.050;2023-08-01T05:21:10;3.55;;;3.25;;
13487;SDS011;6816;48.506;9.050;2023-08-01T05:24:10;3.28;;;2.80;;
13487;SDS011;6816;48.506;9.050;2023-08-01T05:27:11;4.75;;;3.10;;
13487;SDS011;6816;48.506;9.050;2023-08-01T05:30:12;3.85;;;3.03;;
13487;SDS011;6816;48.506;9.050;2023-08-01T05:33:12;3.83;;;3.13;;
13487;SDS011;6816;48.506;9.050;2023-08-01T05:36:13;3.67;;;2.80;;
13487;SDS011;6816;48.506;9.050;2023-08-01T05:39:13;3.33;;;2.53;;
13487;SDS011;6816;48.506;9.050;2023-08-01T05:42:14;2.60;;;2.20;;
13487;SDS011;6816;48.506;9.050;2023-08-01T05:45:15;3.35;;;2.80;;
13487;SDS011;6816;48.506;9.050;2023-08-01T05:48:15;3.80;;;2.63;;
13487;SDS011;6816;48.506;9.050;2023-08-01T05:51:16;2.58;;;2.20;;
13487;SDS011;6816;48.506;9.050;2023-08-01T05:54:16;3.30;;;2.55;;
13487;SDS011;6816;48.506;9.050;2023-08-01T05:57:17;3.17;;;2.50;;
13487;SDS011;6816;48.506;9.050;2023-08-01T06:00:18;2.35;;;2.15;;
13487;SDS011;6816;48.506;9.050;2023-08-01T06:03:22;4.10;;;2.75;;
13487;SDS011;6816;48.506;9.050;2023-08-01T06:06:23;2.80;;;2.55;;
13487;SDS011;6816;48.506;9.050;2023-08-01T06:09:23;3.38;;;2.88;;
13487;SDS011;6816;48.506;9.050;2023-08-01T06:12:24;3.17;;;2.88;;
13487;SDS011;6816;48.506;9.050;2023-08-01T06:15:25;4.10;;;3.30;;
13487;SDS011;6816;48.506;9.050;2023-08-01T06:18:25;4.00;;;3.30;;
13487;SDS011;6816;48.506;9.050;2023-08-01T06:21:26;4.28;;;3.80;;
13487;SDS011;6816;48.506;9.050;2023-08-01T06:24:27;4.43;;;3.55;;
13487;SDS011;6816;48.506;9.050;2023-08-01T06:27:27;4.03;;;3.70;;
13487;SDS011;6816;48.506;9.050;2023-08-01T06:30:28;4.40;;;3.60;;
13487;SDS011;6816;48.506;9.050;2023-08-01T06:33:28;5.13;;;3.50;;
13487;SDS011;6816;48.506;9.050;2023-08-01T06:36:29;4.20;;;3.80;;
13487;SDS011;6816;48.506;9.050;2023-08-01T06:39:30;4.85;;;3.70;;
13487;SDS011;6816;48.506;9.050;2023-08-01T06:42:30;4.28;;;3.70;;
13487;SDS011;6816;48.506;9.050;2023-08-01T06:45:31;5.03;;;3.88;;
13487;SDS011;6816;48.506;9.050;2023-08-01T06:48:31;4.13;;;3.72;;
13487;SDS011;6816;48.506;9.050;2023-08-01T06:51:34;4.82;;;3.75;;
13487;SDS011;6816;48.506;9.050;2023-08-01T06:54:35;3.95;;;3.55;;
13487;SDS011;6816;48.506;9.050;2023-08-01T06:57:35;4.18;;;3.50;;
13487;SDS011;6816;48.506;9.050;2023-08-01T07:00:36;4.95;;;3.58;;
13487;SDS011;6816;48.506;9.050;2023-08-01T07:03:37;4.15;;;3.67;;
13487;SDS011;6816;48.506;9.050;2023-08-01T07:06:37;4.10;;;3.58;;
13487;SDS011;6816;48.506;9.050;2023-08-01T07:09:38;4.07;;;3.55;;
13487;SDS011;6816;48.506;9.050;2023-08-01T07:12:39;4.13;;;3.25;;
13487;SDS011;6816;48.506;9.050;2023-08-01T07:15:39;7.68;;;3.42;;
13487;SDS011;6816;48.506;9.050;2023-08-01T07:18:40;3.58;;;3.25;;
13487;SDS011;6816;48.506;9.050;2023-08-01T07:21:40;4.20;;;3.80;;
13487;SDS011;6816;48.506;9.050;2023-08-01T07:24:41;5.25;;;3.45;;
13487;SDS011;6816;48.506;9.050;2023-08-01T07:27:42;5.82;;;3.67;;
13487;SDS011;6816;48.506;9.050;2023-08-01T07:30:42;3.58;;;3.20;;
13487;SDS011;6816;48.506;9.050;2023-08-01T07:33:43;4.38;;;3.60;;
13487;SDS011;6816;48.506;9.050;2023-08-01T07:36:45;5.20;;;3.45;;
13487;SDS011;6816;48.506;9.050;2023-08-01T07:39:49;4.35;;;3.28;;
13487;SDS011;6816;48.506;9.050;2023-08-01T07:42:50;4.15;;;3.60;;
13487;SDS011;6816;48.506;9.050;2023-08-01T07:45:54;3.17;;;2.88;;
13487;SDS011;6816;48.506;9.050;2023-08-01T07:48:58;3.58;;;2.55;;
13487;SDS011;6816;48.506;9.050;2023-08-01T07:51:59;3.35;;;3.05;;
13487;SDS011;6816;48.506;9.050;2023-08-01T07:55:00;3.80;;;3.05;;
13487;SDS011;6816;48.506;9.050;2023-08-01T07:58:00;3.22;;;2.92;;
13487;SDS011;6816;48.506;9.050;2023-08-01T08:01:07;3.20;;;2.90;;
13487;SDS011;6816;48.506;9.050;2023-08-01T08:04:08;6.70;;;3.38;;
13487;SDS011;6816;48.506;9.050;2023-08-01T08:07:08;3.85;;;3.13;;
13487;SDS011;6816;48.506;9.050;2023-08-01T08:10:09;3.42;;;2.97;;
13487;SDS011;6816;48.506;9.050;2023-08-01T08:13:10;5.32;;;2.85;;
13487;SDS011;6816;48.506;9.050;2023-08-01T08:16:10;4.50;;;2.92;;
13487;SDS011;6816;48.506;9.050;2023-08-01T08:19:11;4.22;;;2.67;;
13487;SDS011;6816;48.506;9.050;2023-08-01T08:22:11;2.67;;;2.30;;
13487;SDS011;6816;48.506;9.050;2023-08-01T08:25:12;2.92;;;2.50;;
13487;SDS011;6816;48.506;9.050;2023-08-01T08:28:13;2.75;;;2.40;;
13487;SDS011;6816;48.506;9.050;2023-08-01T08:31:14;2.35;;;2.15;;
13487;SDS011;6816;48.506;9.050;2023-08-01T08:34:14;2.30;;;2.10;;
13487;SDS011;6816;48.506;9.050;2023-08-01T08:37:15;3.75;;;2.40;;
13487;SDS011;6816;48.506;9.050;2023-08-01T08:40:16;4.18;;;2.67;;
13487;SDS011;6816;48.506;9.050;2023-08-01T08:43:16;2.35;;;2.10;;
13487;SDS011;6816;48.506;9.050;2023-08-01T08:46:17;2.83;;;2.33;;
13487;SDS011;6816;48.506;9.050;2023-08-01T08:49:21;2.83;;;2.50;;
13487;SDS011;6816;48.506;9.050;2023-08-01T08:52:25;2.13;;;1.92;;
13487;SDS011;6816;48.506;9.050;2023-08-01T08:55:26;3.58;;;2.88;;
13487;SDS011;6816;48.506;9.050;2023-08-01T08:58:30;2.28;;;2.00;;
13487;SDS011;6816;48.506;9.050;2023-08-01T09:01:31;2.92;;;2.10;;
13487;SDS011;6816;48.506;9.050;2023-08-01T09:04:32;3.60;;;2.42;;
13487;SDS011;6816;48.506;9.050;2023-08-01T09:07:33;2.00;;;1.80;;
13487;SDS011;6816;48.506;9.050;2023-08-01T09:10:38;2.58;;;2.03;;
13487;SDS011;6816;48.506;9.050;2023-08-01T09:13:38;1.92;;;1.55;;
13487;SDS011;6816;48.506;9.050;2023-08-01T09:16:40;2.28;;;2.08;;
13487;SDS011;6816;48.506;9.050;2023-08-01T09:19:41;2.20;;;2.00;;
13487;SDS011;6816;48.506;9.050;2023-08-01T09:22:45;2.63;;;1.60;;
13487;SDS011;6816;48.506;9.050;2023-08-01T09:25:46;1.67;;;1.58;;
13487;SDS011;6816;48.506;9.050;2023-08-01T09:28:56;2.13;;;1.80;;
13487;SDS011;6816;48.506;9.050;2023-08-01T09:31:57;2.97;;;1.83;;
13487;SDS011;6816;48.506;9.050;2023-08-01T09:34:58;1.88;;;1.70;;
13487;SDS011;6816;48.506;9.050;2023-08-01T09:38:00;2.10;;;1.50;;
13487;SDS011;6816;48.506;9.050;2023-08-01T09:41:01;1.40;;;1.30;;
13487;SDS011;6816;48.506;9.050;2023-08-01T09:44:03;1.65;;;1.55;;
13487;SDS011;6816;48.506;9.050;2023-08-01T09:47:04;1.73;;;1.50;;
13487;SDS011;6816;48.506;9.050;2023-08-01T09:50:11;1.60;;;1.30;;
13487;SDS011;6816;48.506;9.050;2023-08-01T09:53:19;1.40;;;1.20;;
13487;SDS011;6816;48.506;9.050;2023-08-01T09:56:24;1.50;;;1.40;;
13487;SDS011;6816;48.506;9.050;2023-08-01T09:59:26;1.80;;;1.48;;
13487;SDS011;6816;48.506;9.050;2023-08-01T10:02:28;1.40;;;1.30;;
13487;SDS011;6816;48.506;9.050;2023-08-01T10:05:32;1.50;;;1.40;;
13487;SDS011;6816;48.506;9.050;2023-08-01T10:08:35;1.75;;;1.60;;
13487;SDS011;6816;48.506;9.050;2023-08-01T10:11:36;1.77;;;1.42;;
13487;SDS011;6816;48.506;9.050;2023-08-01T10:14:39;2.05;;;1.70;;
13487;SDS011;6816;48.506;9.050;2023-08-01T10:17:41;1.50;;;1.40;;
13487;SDS011;6816;48.506;9.050;2023-08-01T10:20:42;2.00;;;1.52;;
13487;SDS011;6816;48.506;9.050;2023-08-01T10:23:44;2.58;;;1.55;;
13487;SDS011;6816;48.506;9.050;2023-08-01T10:26:47;1.30;;;1.10;;
13487;SDS011;6816;48.506;9.050;2023-08-01T10:29:57;1.50;;;1.38;;
13487;SDS011;6816;48.506;9.050;2023-08-01T10:32:59;1.45;;;1.35;;
13487;SDS011;6816;48.506;9.050;2023-08-01T10:36:00;1.25;;;1.15;;
13487;SDS011;6816;48.506;9.050;2023-08-01T10:39:11;1.67;;;1.27;;
13487;SDS011;6816;48.506;9.050;2023-08-01T10:42:21;1.50;;;1.35;;
13487;SDS011;6816;48.506;9.050;2023-08-01T10:45:23;1.30;;;1.00;;
13487;SDS011;6816;48.506;9.050;2023-08-01T10:48:24;1.00;;;0.90;;
13487;SDS011;6816;48.506;9.050;2023-08-01T10:51:24;2.05;;;1.20;;
13487;SDS011;6816;48.506;9.050;2023-08-01T10:54:35;1.23;;;1.00;;
13487;SDS011;6816;48.506;9.050;2023-08-01T10:57:55;1.23;;;1.10;;
13487;SDS011;6816;48.506;9.050;2023-08-01T11:01:16;2.65;;;1.20;;
13487;SDS011;6816;48.506;9.050;2023-08-01T11:04:17;0.90;;;0.90;;
13487;SDS011;6816;48.506;9.050;2023-08-01T11:07:22;1.27;;;1.00;;
13487;SDS011;6816;48.506;9.050;2023-08-01T11:10:24;1.10;;;0.57;;
13487;SDS011;6816;48.506;9.050;2023-08-01T11:13:26;1.35;;;0.65;;
13487;SDS011;6816;48.506;9.050;2023-08-01T11:16:26;1.27;;;0.77;;
13487;SDS011;6816;48.506;9.050;2023-08-01T11:19:31;1.00;;;0.90;;
13487;SDS011;6816;48.506;9.050;2023-08-01T11:22:31;0.77;;;0.70;;
13487;SDS011;6816;48.506;9.050;2023-08-01T11:28:37;0.95;;;0.80;;
13487;SDS011;6816;48.506;9.050;2023-08-01T11:31:38;0.93;;;0.70;;
13487;SDS011;6816;48.506;9.050;2023-08-01T11:34:41;0.90;;;0.80;;
13487;SDS011;6816;48.506;9.050;2023-08-01T11:37:44;3.30;;;1.23;;
13487;SDS011;6816;48.506;9.050;2023-08-01T11:40:45;0.95;;;0.70;;
13487;SDS011;6816;48.506;9.050;2023-08-01T11:43:49;0.90;;;0.90;;
13487;SDS011;6816;48.506;9.050;2023-08-01T11:46:51;0.88;;;0.80;;
13487;SDS011;6816;48.506;9.050;2023-08-01T11:49:52;1.75;;;0.70;;
13487;SDS011;6816;48.506;9.050;2023-08-01T11:52:53;0.80;;;0.80;;
13487;SDS011;6816;48.506;9.050;2023-08-01T11:55:53;0.70;;;0.70;;
13487;SDS011;6816;48.506;9.050;2023-08-01T11:58:56;0.95;;;0.82;;
13487;SDS011;6816;48.506;9.050;2023-08-01T12:01:57;0.85;;;0.85;;
13487;SDS011;6816;48.506;9.050;2023-08-01T12:04:57;1.17;;;1.00;;
13487;SDS011;6816;48.506;9.050;2023-08-01T12:11:32;1.13;;;0.90;;
13487;SDS011;6816;48.506;9.050;2023-08-01T12:14:33;0.85;;;0.70;;
13487;SDS011;6816;48.506;9.050;2023-08-01T12:17:33;1.20;;;1.00;;
13487;SDS011;6816;48.506;9.050;2023-08-01T12:20:34;1.77;;;1.17;;
13487;SDS011;6816;48.506;9.050;2023-08-01T12:23:35;0.98;;;0.85;;
13487;SDS011;6816;48.506;9.050;2023-08-01T12:26:36;2.13;;;0.85;;
13487;SDS011;6816;48.506;9.050;2023-08-01T12:29:36;1.13;;;0.75;;
13487;SDS011;6816;48.506;9.050;2023-08-01T12:32:37;0.95;;;0.93;;
13487;SDS011;6816;48.506;9.050;2023-08-01T12:35:41;1.00;;;1.00;;
13487;SDS011;6816;48.506;9.050;2023-08-01T12:38:41;0.90;;;0.90;;
13487;SDS011;6816;48.506;9.050;2023-08-01T12:41:42;1.02;;;0.98;;
13487;SDS011;6816;48.506;9.050;2023-08-01T12:44:43;0.75;;;0.75;;
13487;SDS011;6816;48.506;9.050;2023-08-01T12:47:43;0.90;;;0.90;;
13487;SDS011;6816;48.506;9.050;2023-08-01T12:50:44;1.33;;;1.00;;
13487;SDS011;6816;48.506;9.050;2023-08-01T12:53:46;0.85;;;0.80;;
13487;SDS011;6816;48.506;9.050;2023-08-01T12:56:48;1.48;;;1.17;;
13487;SDS011;6816;48.506;9.050;2023-08-01T12:59:48;1.50;;;1.40;;
13487;SDS011;6816;48.506;9.050;2023-08-01T13:02:49;1.13;;;1.02;;
13487;SDS011;6816;48.506;9.050;2023-08-01T13:05:50;1.02;;;1.00;;
13487;SDS011;6816;48.506;9.050;2023-08-01T13:08:52;1.40;;;0.98;;
13487;SDS011;6816;48.506;9.050;2023-08-01T13:11:53;0.93;;;0.90;;
13487;SDS011;6816;48.506;9.050;2023-08-01T13:14:54;0.90;;;0.90;;
13487;SDS011;6816;48.506;9.050;2023-08-01T13:17:54;1.38;;;1.20;;
13487;SDS011;6816;48.506;9.050;2023-08-01T13:20:56;1.08;;;0.95;;
13487;SDS011;6816;48.506;9.050;2023-08-01T13:23:57;1.05;;;0.90;;
13487;SDS011;6816;48.506;9.050;2023-08-01T13:26:58;0.93;;;0.90;;
13487;SDS011;6816;48.506;9.050;2023-08-01T13:29:59;0.95;;;0.90;;
13487;SDS011;6816;48.506;9.050;2023-08-01T13:32:59;1.05;;;0.90;;
13487;SDS011;6816;48.506;9.050;2023-08-01T13:36:00;3.80;;;0.90;;
13487;SDS011;6816;48.506;9.050;2023-08-01T13:39:01;0.88;;;0.88;;
13487;SDS011;6816;48.506;9.050;2023-08-01T13:42:02;0.90;;;0.90;;
13487;SDS011;6816;48.506;9.050;2023-08-01T13:45:02;1.00;;;0.90;;
13487;SDS011;6816;48.506;9.050;2023-08-01T13:48:03;0.95;;;0.95;;
13487;SDS011;6816;48.506;9.050;2023-08-01T13:51:04;0.98;;;0.98;;
13487;SDS011;6816;48.506;9.050;2023-08-01T13:54:05;1.05;;;0.90;;
13487;SDS011;6816;48.506;9.050;2023-08-01T13:57:05;1.23;;;1.10;;
13487;SDS011;6816;48.506;9.050;2023-08-01T14:00:06;0.80;;;0.80;;
13487;SDS011;6816;48.506;9.050;2023-08-01T14:03:07;0.98;;;0.98;;
13487;SDS011;6816;48.506;9.050;2023-08-01T14:06:09;1.10;;;0.90;;
13487;SDS011;6816;48.506;9.050;2023-08-01T14:09:13;0.98;;;0.90;;
13487;SDS011;6816;48.506;9.050;2023-08-01T14:12:14;0.90;;;0.90;;
13487;SDS011;6816;48.506;9.050;2023-08-01T14:15:19;0.63;;;0.63;;
13487;SDS011;6816;48.506;9.050;2023-08-01T14:18:20;0.93;;;0.82;;
13487;SDS011;6816;48.506;9.050;2023-08-01T14:21:20;1.30;;;0.95;;
13487;SDS011;6816;48.506;9.050;2023-08-01T14:24:21;0.90;;;0.90;;
13487;SDS011;6816;48.506;9.050;2023-08-01T14:27:22;1.67;;;1.20;;
13487;SDS011;6816;48.506;9.050;2023-08-01T14:30:22;1.17;;;0.90;;
13487;SDS011;6816;48.506;9.050;2023-08-01T14:33:23;0.80;;;0.80;;
13487;SDS011;6816;48.506;9.050;2023-08-01T14:36:23;0.95;;;0.80;;
13487;SDS011;6816;48.506;9.050;2023-08-01T14:39:24;0.80;;;0.80;;
13487;SDS011;6816;48.506;9.050;2023-08-01T14:42:24;0.80;;;0.80;;
13487;SDS011;6816;48.506;9.050;2023-08-01T14:45:25;1.00;;;0.90;;
13487;SDS011;6816;48.506;9.050;2023-08-01T14:48:26;0.90;;;0.90;;
13487;SDS011;6816;48.506;9.050;2023-08-01T14:51:27;1.00;;;1.00;;
13487;SDS011;6816;48.506;9.050;2023-08-01T14:54:27;0.80;;;0.80;;
13487;SDS011;6816;48.506;9.050;2023-08-01T14:57:28;2.25;;;0.77;;
13487;SDS011;6816;48.506;9.050;2023-08-01T15:00:28;1.85;;;0.90;;
13487;SDS011;6816;48.506;9.050;2023-08-01T15:03:29;2.40;;;0.90;;
13487;SDS011;6816;48.506;9.050;2023-08-01T15:06:29;0.90;;;0.90;;
13487;SDS011;6816;48.506;9.050;2023-08-01T15:09:30;0.65;;;0.60;;
13487;SDS011;6816;48.506;9.050;2023-08-01T15:12:31;0.70;;;0.70;;
13487;SDS011;6816;48.506;9.050;2023-08-01T15:15:35;0.80;;;0.80;;
13487;SDS011;6816;48.506;9.050;2023-08-01T15:18:37;1.77;;;0.80;;
13487;SDS011;6816;48.506;9.050;2023-08-01T15:21:37;2.03;;;0.73;;
13487;SDS011;6816;48.506;9.050;2023-08-01T15:24:38;1.17;;;0.90;;
13487;SDS011;6816;48.506;9.050;2023-08-01T15:27:38;0.82;;;0.82;;
13487;SDS011;6816;48.506;9.050;2023-08-01T15:30:39;0.95;;;0.70;;
13487;SDS011;6816;48.506;9.050;2023-08-01T15:33:40;0.75;;;0.70;;
13487;SDS011;6816;48.506;9.050;2023-08-01T15:36:41;0.93;;;0.90;;
13487;SDS011;6816;48.506;9.050;2023-08-01T15:39:47;0.77;;;0.77;;
13487;SDS011;6816;48.506;9.050;2023-08-01T15:42:47;1.00;;;0.90;;
13487;SDS011;6816;48.506;9.050;2023-08-01T15:45:48;0.93;;;0.93;;
13487;SDS011;6816;48.506;9.050;2023-08-01T15:48:49;0.77;;;0.70;;
13487;SDS011;6816;48.506;9.050;2023-08-01T15:51:49;0.85;;;0.70;;
13487;SDS011;6816;48.506;9.050;2023-08-01T15:54:50;0.98;;;0.88;;
13487;SDS011;6816;48.506;9.050;2023-08-01T15:57:50;1.00;;;0.90;;
13487;SDS011;6816;48.506;9.050;2023-08-01T16:00:51;1.20;;;1.10;;
13487;SDS011;6816;48.506;9.050;2023-08-01T16:03:52;0.80;;;0.80;;
13487;SDS011;6816;48.506;9.050;2023-08-01T16:06:52;0.82;;;0.82;;
13487;SDS011;6816;48.506;9.050;2023-08-01T16:09:53;1.48;;;0.70;;
13487;SDS011;6816;48.506;9.050;2023-08-01T16:12:53;1.02;;;0.90;;
13487;SDS011;6816;48.506;9.050;2023-08-01T16:15:54;1.50;;;0.82;;
13487;SDS011;6816;48.506;9.050;2023-08-01T16:18:55;1.10;;;1.00;;
13487;SDS011;6816;48.506;9.050;2023-08-01T16:21:55;0.88;;;0.80;;
13487;SDS011;6816;48.506;9.050;2023-08-01T16:24:56;0.80;;;0.80;;
13487;SDS011;6816;48.506;9.050;2023-08-01T16:27:56;1.23;;;1.13;;
13487;SDS011;6816;48.506;9.050;2023-08-01T16:30:57;1.08;;;1.00;;
13487;SDS011;6816;48.506;9.050;2023-08-01T16:33:57;1.15;;;0.80;;
13487;SDS011;6816;48.506;9.050;2023-08-01T16:36:58;1.02;;;0.90;;
13487;SDS011;6816;48.506;9.050;2023-08-01T16:40:01;0.90;;;0.90;;
13487;SDS011;6816;48.506;9.050;2023-08-01T16:43:01;1.33;;;0.80;;
13487;SDS011;6816;48.506;9.050;2023-08-01T16:46:02;2.13;;;0.88;;
13487;SDS011;6816;48.506;9.050;2023-08-01T16:49:03;1.02;;;0.93;;
13487;SDS011;6816;48.506;9.050;2023-08-01T16:52:03;1.10;;;0.90;;
13487;SDS011;6816;48.506;9.050;2023-08-01T16:55:05;1.10;;;0.90;;
13487;SDS011;6816;48.506;9.050;2023-08-01T16:58:05;1.00;;;1.00;;
13487;SDS011;6816;48.506;9.050;2023-08-01T17:01:06;2.13;;;1.00;;
13487;SDS011;6816;48.506;9.050;2023-08-01T17:04:08;0.80;;;0.80;;
13487;SDS011;6816;48.506;9.050;2023-08-01T17:07:08;0.88;;;0.82;;
13487;SDS011;6816;48.506;9.050;2023-08-01T17:10:09;0.82;;;0.82;;
13487;SDS011;6816;48.506;9.050;2023-08-01T17:13:10;2.55;;;1.00;;
13487;SDS011;6816;48.506;9.050;2023-08-01T17:16:10;1.25;;;1.00;;
13487;SDS011;6816;48.506;9.050;2023-08-01T17:19:14;1.10;;;1.00;;
13487;SDS011;6816;48.506;9.050;2023-08-01T17:22:15;3.35;;;1.00;;
13487;SDS011;6816;48.506;9.050;2023-08-01T17:25:16;1.25;;;1.15;;
13487;SDS011;6816;48.506;9.050;2023-08-01T17:28:16;1.38;;;1.00;;
13487;SDS011;6816;48.506;9.050;2023-08-01T17:31:17;1.08;;;0.98;;
13487;SDS011;6816;48.506;9.050;2023-08-01T17:34:18;0.90;;;0.90;;
13487;SDS011;6816;48.506;9.050;2023-08-01T17:37:18;0.98;;;0.88;;
13487;SDS011;6816;48.506;9.050;2023-08-01T17:40:19;1.27;;;1.00;;
13487;SDS011;6816;48.506;9.050;2023-08-01T17:43:19;1.15;;;1.02;;
13487;SDS011;6816;48.506;9.050;2023-08-01T17:46:20;1.10;;;1.00;;
13487;SDS011;6816;48.506;9.050;2023-08-01T17:49:20;1.85;;;1.00;;
13487;SDS011;6816;48.506;9.050;2023-08-01T17:52:21;3.08;;;1.35;;
13487;SDS011;6816;48.506;9.050;2023-08-01T17:55:22;1.15;;;0.98;;
13487;SDS011;6816;48.506;9.050;2023-08-01T17:58:23;0.80;;;0.80;;
13487;SDS011;6816;48.506;9.050;2023-08-01T18:01:24;1.20;;;1.10;;
13487;SDS011;6816;48.506;9.050;2023-08-01T18:04:24;2.00;;;0.93;;
13487;SDS011;6816;48.506;9.050;2023-08-01T18:07:25;0.90;;;0.85;;
13487;SDS011;6816;48.506;9.050;2023-08-01T18:10:25;1.27;;;0.90;;
13487;SDS011;6816;48.506;9.050;2023-08-01T18:13:30;2.05;;;0.80;;
13487;SDS011;6816;48.506;9.050;2023-08-01T18:16:31;0.90;;;0.90;;
13487;SDS011;6816;48.506;9.050;2023-08-01T18:19:32;1.23;;;1.10;;
13487;SDS011;6816;48.506;9.050;2023-08-01T18:22:33;1.13;;;1.02;;
13487;SDS011;6816;48.506;9.050;2023-08-01T18:25:33;0.98;;;0.98;;
13487;SDS011;6816;48.506;9.050;2023-08-01T18:28:34;0.80;;;0.80;;
13487;SDS011;6816;48.506;9.050;2023-08-01T18:31:35;1.85;;;0.88;;
13487;SDS011;6816;48.506;9.050;2023-08-01T18:34:36;1.00;;;0.90;;